sensor_id;sensor_type;location;lat;lon;timestamp;P1;durP1;ratioP1;P2;durP2;ratioP2
13764;SDS011;6953;48.810;9.204;2023-10-08T00:01:17;0.30;;;0.30;;
13764;SDS011;6953;48.810;9.204;2023-10-08T00:03:44;0.30;;;0.30;;
13764;SDS011;6953;48.810;9.204;2023-10-08T00:06:23;0.30;;;0.30;;
13764;SDS011;6953;48.810;9.204;2023-10-08T00:08:48;0.30;;;0.30;;
13764;SDS011;6953;48.810;9.204;2023-10-08T00:11:14;0.30;;;0.30;;
13764;SDS011;6953;48.810;9.204;2023-10-08T00:13:41;0.32;;;0.32;;
13764;SDS011;6953;48.810;9.204;2023-10-08T00:16:10;0.30;;;0.30;;
13764;SDS011;6953;48.810;9.204;2023-10-08T00:18:42;0.30;;;0.30;;
13764;SDS011;6953;48.810;9.204;2023-10-08T00:21:23;0.30;;;0.30;;
13764;SDS011;6953;48.810;9.204;2023-10-08T00:23:51;0.30;;;0.30;;
13764;SDS011;6953;48.810;9.204;2023-10-08T00:26:20;0.40;;;0.40;;
13764;SDS011;6953;48.810;9.204;2023-10-08T00:28:53;0.20;;;0.20;;
13764;SDS011;6953;48.810;9.204;2023-10-08T00:31:22;0.30;;;0.30;;
13764;SDS011;6953;48.810;9.204;2023-10-08T00:33:52;0.30;;;0.30;;
13764;SDS011;6953;48.810;9.204;2023-10-08T00:36:17;0.30;;;0.30;;
13764;SDS011;6953;48.810;9.204;2023-10-08T00:38:44;0.30;;;0.30;;
13764;SDS011;6953;48.810;9.204;2023-10-08T00:41:13;0.30;;;0.30;;
13764;SDS011;6953;48.810;9.204;2023-10-08T00:43:42;0.35;;;0.35;;
13764;SDS011;6953;48.810;9.204;2023-10-08T00:46:10;0.20;;;0.20;;
13764;SDS011;6953;48.810;9.204;2023-10-08T00:48:55;0.40;;;0.40;;
13764;SDS011;6953;48.810;9.204;2023-10-08T00:51:22;0.30;;;0.30;;
13764;SDS011;6953;48.810;9.204;2023-10-08T00:56:23;0.30;;;0.30;;
13764;SDS011;6953;48.810;9.204;2023-10-08T00:59:09;0.30;;;0.30;;
13764;SDS011;6953;48.810;9.204;2023-10-08T01:01:40;0.30;;;0.30;;
13764;SDS011;6953;48.810;9.204;2023-10-08T01:04:19;0.30;;;0.30;;
13764;SDS011;6953;48.810;9.204;2023-10-08T01:06:54;0.30;;;0.30;;
13764;SDS011;6953;48.810;9.204;2023-10-08T01:09:28;0.40;;;0.40;;
13764;SDS011;6953;48.810;9.204;2023-10-08T01:12:22;0.30;;;0.30;;
13764;SDS011;6953;48.810;9.204;2023-10-08T01:15:05;0.30;;;0.30;;
13764;SDS011;6953;48.810;9.204;2023-10-08T01:17:41;0.30;;;0.30;;
13764;SDS011;6953;48.810;9.204;2023-10-08T01:20:16;0.30;;;0.30;;
13764;SDS011;6953;48.810;9.204;2023-10-08T01:23:08;0.25;;;0.25;;
13764;SDS011;6953;48.810;9.204;2023-10-08T01:25:44;0.30;;;0.30;;
13764;SDS011;6953;48.810;9.204;2023-10-08T01:28:28;0.30;;;0.30;;
13764;SDS011;6953;48.810;9.204;2023-10-08T01:30:59;0.40;;;0.40;;
13764;SDS011;6953;48.810;9.204;2023-10-08T01:33:28;0.30;;;0.30;;
13764;SDS011;6953;48.810;9.204;2023-10-08T01:36:02;0.43;;;0.43;;
13764;SDS011;6953;48.810;9.204;2023-10-08T01:38:30;0.40;;;0.40;;
13764;SDS011;6953;48.810;9.204;2023-10-08T01:40:56;0.32;;;0.32;;
13764;SDS011;6953;48.810;9.204;2023-10-08T01:43:21;0.40;;;0.40;;
13764;SDS011;6953;48.810;9.204;2023-10-08T01:45:47;0.40;;;0.40;;
13764;SDS011;6953;48.810;9.204;2023-10-08T01:48:15;0.32;;;0.32;;
13764;SDS011;6953;48.810;9.204;2023-10-08T01:50:54;0.40;;;0.40;;
13764;SDS011;6953;48.810;9.204;2023-10-08T01:53:20;0.25;;;0.25;;
13764;SDS011;6953;48.810;9.204;2023-10-08T01:55:46;0.32;;;0.32;;
13764;SDS011;6953;48.810;9.204;2023-10-08T01:58:15;0.40;;;0.40;;
13764;SDS011;6953;48.810;9.204;2023-10-08T02:00:47;0.30;;;0.30;;
13764;SDS011;6953;48.810;9.204;2023-10-08T02:03:14;0.30;;;0.30;;
13764;SDS011;6953;48.810;9.204;2023-10-08T02:05:44;0.28;;;0.28;;
13764;SDS011;6953;48.810;9.204;2023-10-08T02:11:57;0.30;;;0.30;;
13764;SDS011;6953;48.810;9.204;2023-10-08T02:14:23;0.32;;;0.32;;
13764;SDS011;6953;48.810;9.204;2023-10-08T02:16:51;0.30;;;0.30;;
13764;SDS011;6953;48.810;9.204;2023-10-08T02:19:21;0.50;;;0.50;;
13764;SDS011;6953;48.810;9.204;2023-10-08T02:21:52;0.40;;;0.40;;
13764;SDS011;6953;48.810;9.204;2023-10-08T02:24:19;0.40;;;0.40;;
13764;SDS011;6953;48.810;9.204;2023-10-08T02:26:46;0.22;;;0.22;;
13764;SDS011;6953;48.810;9.204;2023-10-08T02:29:11;0.40;;;0.40;;
13764;SDS011;6953;48.810;9.204;2023-10-08T02:31:40;0.30;;;0.30;;
13764;SDS011;6953;48.810;9.204;2023-10-08T02:34:06;0.30;;;0.30;;
13764;SDS011;6953;48.810;9.204;2023-10-08T02:36:35;0.35;;;0.35;;
13764;SDS011;6953;48.810;9.204;2023-10-08T02:39:05;0.30;;;0.30;;
13764;SDS011;6953;48.810;9.204;2023-10-08T02:41:38;0.30;;;0.30;;
13764;SDS011;6953;48.810;9.204;2023-10-08T02:44:06;0.30;;;0.30;;
13764;SDS011;6953;48.810;9.204;2023-10-08T02:46:32;0.40;;;0.40;;
13764;SDS011;6953;48.810;9.204;2023-10-08T02:48:58;0.30;;;0.30;;
13764;SDS011;6953;48.810;9.204;2023-10-08T02:51:23;0.47;;;0.47;;
13764;SDS011;6953;48.810;9.204;2023-10-08T02:53:49;0.30;;;0.30;;
13764;SDS011;6953;48.810;9.204;2023-10-08T02:56:15;0.40;;;0.40;;
13764;SDS011;6953;48.810;9.204;2023-10-08T02:58:40;0.40;;;0.40;;
13764;SDS011;6953;48.810;9.204;2023-10-08T03:01:08;0.50;;;0.50;;
13764;SDS011;6953;48.810;9.204;2023-10-08T03:03:38;0.40;;;0.40;;
13764;SDS011;6953;48.810;9.204;2023-10-08T03:06:05;0.40;;;0.40;;
13764;SDS011;6953;48.810;9.204;2023-10-08T03:08:36;0.45;;;0.45;;
13764;SDS011;6953;48.810;9.204;2023-10-08T03:11:02;0.40;;;0.40;;
13764;SDS011;6953;48.810;9.204;2023-10-08T03:13:28;0.40;;;0.40;;
13764;SDS011;6953;48.810;9.204;2023-10-08T03:15:54;0.40;;;0.40;;
13764;SDS011;6953;48.810;9.204;2023-10-08T03:18:25;0.25;;;0.25;;
13764;SDS011;6953;48.810;9.204;2023-10-08T03:20:50;0.47;;;0.47;;
13764;SDS011;6953;48.810;9.204;2023-10-08T03:23:16;0.45;;;0.45;;
13764;SDS011;6953;48.810;9.204;2023-10-08T03:25:57;0.30;;;0.30;;
13764;SDS011;6953;48.810;9.204;2023-10-08T03:28:27;0.40;;;0.40;;
13764;SDS011;6953;48.810;9.204;2023-10-08T03:30:54;0.30;;;0.30;;
13764;SDS011;6953;48.810;9.204;2023-10-08T03:33:28;0.50;;;0.50;;
13764;SDS011;6953;48.810;9.204;2023-10-08T03:35:59;0.40;;;0.40;;
13764;SDS011;6953;48.810;9.204;2023-10-08T03:38:28;0.50;;;0.50;;
13764;SDS011;6953;48.810;9.204;2023-10-08T03:41:09;0.40;;;0.40;;
13764;SDS011;6953;48.810;9.204;2023-10-08T03:43:40;0.40;;;0.40;;
13764;SDS011;6953;48.810;9.204;2023-10-08T03:46:18;0.50;;;0.50;;
13764;SDS011;6953;48.810;9.204;2023-10-08T03:48:48;0.40;;;0.40;;
13764;SDS011;6953;48.810;9.204;2023-10-08T03:51:16;0.40;;;0.40;;
13764;SDS011;6953;48.810;9.204;2023-10-08T03:53:45;0.40;;;0.40;;
13764;SDS011;6953;48.810;9.204;2023-10-08T03:56:24;0.40;;;0.40;;
13764;SDS011;6953;48.810;9.204;2023-10-08T03:58:50;0.47;;;0.47;;
13764;SDS011;6953;48.810;9.204;2023-10-08T04:01:19;0.50;;;0.50;;
13764;SDS011;6953;48.810;9.204;2023-10-08T04:03:45;0.50;;;0.50;;
13764;SDS011;6953;48.810;9.204;2023-10-08T04:06:17;0.50;;;0.50;;
13764;SDS011;6953;48.810;9.204;2023-10-08T04:08:48;0.40;;;0.40;;
13764;SDS011;6953;48.810;9.204;2023-10-08T04:11:32;0.45;;;0.45;;
13764;SDS011;6953;48.810;9.204;2023-10-08T04:14:01;0.50;;;0.50;;
13764;SDS011;6953;48.810;9.204;2023-10-08T04:16:27;0.40;;;0.40;;
13764;SDS011;6953;48.810;9.204;2023-10-08T04:18:54;0.40;;;0.40;;
13764;SDS011;6953;48.810;9.204;2023-10-08T04:21:21;0.43;;;0.43;;
13764;SDS011;6953;48.810;9.204;2023-10-08T04:23:47;0.40;;;0.40;;
13764;SDS011;6953;48.810;9.204;2023-10-08T04:26:17;0.50;;;0.50;;
13764;SDS011;6953;48.810;9.204;2023-10-08T04:28:48;0.35;;;0.35;;
13764;SDS011;6953;48.810;9.204;2023-10-08T04:31:14;0.30;;;0.30;;
13764;SDS011;6953;48.810;9.204;2023-10-08T04:33:43;0.40;;;0.40;;
13764;SDS011;6953;48.810;9.204;2023-10-08T04:36:09;0.40;;;0.40;;
13764;SDS011;6953;48.810;9.204;2023-10-08T04:38:35;0.50;;;0.50;;
13764;SDS011;6953;48.810;9.204;2023-10-08T04:41:05;0.50;;;0.50;;
13764;SDS011;6953;48.810;9.204;2023-10-08T04:43:34;0.40;;;0.40;;
13764;SDS011;6953;48.810;9.204;2023-10-08T04:46:03;0.30;;;0.30;;
13764;SDS011;6953;48.810;9.204;2023-10-08T04:48:47;0.30;;;0.30;;
13764;SDS011;6953;48.810;9.204;2023-10-08T04:51:14;0.30;;;0.30;;
13764;SDS011;6953;48.810;9.204;2023-10-08T04:53:43;0.40;;;0.40;;
13764;SDS011;6953;48.810;9.204;2023-10-08T04:56:12;0.40;;;0.40;;
13764;SDS011;6953;48.810;9.204;2023-10-08T04:58:38;0.38;;;0.38;;
13764;SDS011;6953;48.810;9.204;2023-10-08T05:01:05;0.40;;;0.40;;
13764;SDS011;6953;48.810;9.204;2023-10-08T05:06:31;0.32;;;0.32;;
13764;SDS011;6953;48.810;9.204;2023-10-08T05:09:01;0.47;;;0.47;;
13764;SDS011;6953;48.810;9.204;2023-10-08T05:11:38;0.30;;;0.30;;
13764;SDS011;6953;48.810;9.204;2023-10-08T05:14:17;0.40;;;0.40;;
13764;SDS011;6953;48.810;9.204;2023-10-08T05:16:56;0.40;;;0.40;;
13764;SDS011;6953;48.810;9.204;2023-10-08T05:19:46;0.40;;;0.40;;
13764;SDS011;6953;48.810;9.204;2023-10-08T05:22:14;0.30;;;0.30;;
13764;SDS011;6953;48.810;9.204;2023-10-08T05:24:47;0.40;;;0.40;;
13764;SDS011;6953;48.810;9.204;2023-10-08T05:27:37;0.40;;;0.40;;
13764;SDS011;6953;48.810;9.204;2023-10-08T05:30:25;0.43;;;0.43;;
13764;SDS011;6953;48.810;9.204;2023-10-08T05:33:06;0.40;;;0.40;;
13764;SDS011;6953;48.810;9.204;2023-10-08T05:35:42;0.38;;;0.38;;
13764;SDS011;6953;48.810;9.204;2023-10-08T05:38:09;0.32;;;0.32;;
13764;SDS011;6953;48.810;9.204;2023-10-08T05:40:39;0.40;;;0.40;;
13764;SDS011;6953;48.810;9.204;2023-10-08T05:43:24;0.40;;;0.40;;
13764;SDS011;6953;48.810;9.204;2023-10-08T05:46:07;0.30;;;0.30;;
13764;SDS011;6953;48.810;9.204;2023-10-08T05:48:59;0.40;;;0.40;;
13764;SDS011;6953;48.810;9.204;2023-10-08T05:51:31;0.30;;;0.30;;
13764;SDS011;6953;48.810;9.204;2023-10-08T05:54:13;0.43;;;0.43;;
13764;SDS011;6953;48.810;9.204;2023-10-08T05:56:52;0.40;;;0.40;;
13764;SDS011;6953;48.810;9.204;2023-10-08T05:59:41;0.40;;;0.40;;
13764;SDS011;6953;48.810;9.204;2023-10-08T06:02:23;0.40;;;0.40;;
13764;SDS011;6953;48.810;9.204;2023-10-08T06:04:57;0.40;;;0.40;;
13764;SDS011;6953;48.810;9.204;2023-10-08T06:07:46;0.40;;;0.40;;
13764;SDS011;6953;48.810;9.204;2023-10-08T06:10:13;0.35;;;0.35;;
13764;SDS011;6953;48.810;9.204;2023-10-08T06:15:35;0.40;;;0.40;;
13764;SDS011;6953;48.810;9.204;2023-10-08T06:18:23;0.30;;;0.30;;
13764;SDS011;6953;48.810;9.204;2023-10-08T06:21:11;0.30;;;0.30;;
13764;SDS011;6953;48.810;9.204;2023-10-08T06:23:37;0.28;;;0.28;;
13764;SDS011;6953;48.810;9.204;2023-10-08T06:26:04;0.40;;;0.40;;
13764;SDS011;6953;48.810;9.204;2023-10-08T06:28:41;0.32;;;0.32;;
13764;SDS011;6953;48.810;9.204;2023-10-08T06:31:09;0.43;;;0.43;;
13764;SDS011;6953;48.810;9.204;2023-10-08T06:33:41;0.38;;;0.38;;
13764;SDS011;6953;48.810;9.204;2023-10-08T06:36:07;0.40;;;0.40;;
13764;SDS011;6953;48.810;9.204;2023-10-08T06:38:36;0.40;;;0.40;;
13764;SDS011;6953;48.810;9.204;2023-10-08T06:41:03;0.40;;;0.40;;
13764;SDS011;6953;48.810;9.204;2023-10-08T06:43:36;0.40;;;0.40;;
13764;SDS011;6953;48.810;9.204;2023-10-08T06:46:02;0.40;;;0.40;;
13764;SDS011;6953;48.810;9.204;2023-10-08T06:48:37;0.40;;;0.40;;
13764;SDS011;6953;48.810;9.204;2023-10-08T06:51:07;0.40;;;0.40;;
13764;SDS011;6953;48.810;9.204;2023-10-08T06:53:41;0.38;;;0.38;;
13764;SDS011;6953;48.810;9.204;2023-10-08T06:56:09;0.40;;;0.40;;
13764;SDS011;6953;48.810;9.204;2023-10-08T06:58:37;0.30;;;0.30;;
13764;SDS011;6953;48.810;9.204;2023-10-08T07:01:03;0.30;;;0.30;;
13764;SDS011;6953;48.810;9.204;2023-10-08T07:03:33;0.25;;;0.25;;
13764;SDS011;6953;48.810;9.204;2023-10-08T07:05:59;0.32;;;0.32;;
13764;SDS011;6953;48.810;9.204;2023-10-08T07:08:32;0.30;;;0.30;;
13764;SDS011;6953;48.810;9.204;2023-10-08T07:10:59;0.30;;;0.30;;
13764;SDS011;6953;48.810;9.204;2023-10-08T07:13:29;0.30;;;0.30;;
13764;SDS011;6953;48.810;9.204;2023-10-08T07:15:55;0.30;;;0.30;;
13764;SDS011;6953;48.810;9.204;2023-10-08T07:18:21;0.30;;;0.30;;
13764;SDS011;6953;48.810;9.204;2023-10-08T07:20:50;0.30;;;0.30;;
13764;SDS011;6953;48.810;9.204;2023-10-08T07:23:21;0.30;;;0.30;;
13764;SDS011;6953;48.810;9.204;2023-10-08T07:28:23;0.20;;;0.20;;
13764;SDS011;6953;48.810;9.204;2023-10-08T07:30:50;0.20;;;0.20;;
13764;SDS011;6953;48.810;9.204;2023-10-08T07:33:17;0.22;;;0.22;;
13764;SDS011;6953;48.810;9.204;2023-10-08T07:35:44;0.20;;;0.20;;
13764;SDS011;6953;48.810;9.204;2023-10-08T07:38:16;0.20;;;0.20;;
13764;SDS011;6953;48.810;9.204;2023-10-08T07:40:42;0.13;;;0.13;;
13764;SDS011;6953;48.810;9.204;2023-10-08T07:43:08;0.20;;;0.20;;
13764;SDS011;6953;48.810;9.204;2023-10-08T07:45:33;0.20;;;0.20;;
13764;SDS011;6953;48.810;9.204;2023-10-08T07:48:00;0.20;;;0.20;;
13764;SDS011;6953;48.810;9.204;2023-10-08T07:50:26;0.20;;;0.20;;
13764;SDS011;6953;48.810;9.204;2023-10-08T07:52:54;0.20;;;0.20;;
13764;SDS011;6953;48.810;9.204;2023-10-08T07:55:21;0.20;;;0.20;;
13764;SDS011;6953;48.810;9.204;2023-10-08T07:57:47;0.30;;;0.30;;
13764;SDS011;6953;48.810;9.204;2023-10-08T08:00:13;0.20;;;0.20;;
13764;SDS011;6953;48.810;9.204;2023-10-08T08:02:47;0.20;;;0.20;;
13764;SDS011;6953;48.810;9.204;2023-10-08T08:05:14;0.20;;;0.20;;
13764;SDS011;6953;48.810;9.204;2023-10-08T08:07:42;0.20;;;0.20;;
13764;SDS011;6953;48.810;9.204;2023-10-08T08:10:11;0.20;;;0.20;;
13764;SDS011;6953;48.810;9.204;2023-10-08T08:12:36;0.20;;;0.20;;
13764;SDS011;6953;48.810;9.204;2023-10-08T08:15:02;0.20;;;0.20;;
13764;SDS011;6953;48.810;9.204;2023-10-08T08:17:39;0.20;;;0.20;;
13764;SDS011;6953;48.810;9.204;2023-10-08T08:20:05;0.10;;;0.10;;
13764;SDS011;6953;48.810;9.204;2023-10-08T08:22:42;0.10;;;0.10;;
13764;SDS011;6953;48.810;9.204;2023-10-08T08:25:12;0.10;;;0.10;;
13764;SDS011;6953;48.810;9.204;2023-10-08T08:27:44;0.10;;;0.10;;
13764;SDS011;6953;48.810;9.204;2023-10-08T08:30:12;0.10;;;0.10;;
13764;SDS011;6953;48.810;9.204;2023-10-08T08:32:41;0.10;;;0.10;;
13764;SDS011;6953;48.810;9.204;2023-10-08T08:35:10;0.10;;;0.10;;
13764;SDS011;6953;48.810;9.204;2023-10-08T08:37:37;0.00;;;0.00;;
13764;SDS011;6953;48.810;9.204;2023-10-08T08:40:06;0.10;;;0.10;;
13764;SDS011;6953;48.810;9.204;2023-10-08T08:42:50;0.00;;;0.00;;
13764;SDS011;6953;48.810;9.204;2023-10-08T08:45:22;0.00;;;0.00;;
13764;SDS011;6953;48.810;9.204;2023-10-08T08:47:51;0.00;;;0.00;;
13764;SDS011;6953;48.810;9.204;2023-10-08T08:50:17;0.00;;;0.00;;
13764;SDS011;6953;48.810;9.204;2023-10-08T08:52:44;0.00;;;0.00;;
13764;SDS011;6953;48.810;9.204;2023-10-08T08:55:10;0.00;;;0.00;;
13764;SDS011;6953;48.810;9.204;2023-10-08T08:57:41;0.00;;;0.00;;
13764;SDS011;6953;48.810;9.204;2023-10-08T09:00:08;0.00;;;0.00;;
13764;SDS011;6953;48.810;9.204;2023-10-08T09:02:39;0.00;;;0.00;;
13764;SDS011;6953;48.810;9.204;2023-10-08T09:05:05;0.00;;;0.00;;
13764;SDS011;6953;48.810;9.204;2023-10-08T09:10:19;0.00;;;0.00;;
13764;SDS011;6953;48.810;9.204;2023-10-08T09:12:51;0.00;;;0.00;;
13764;SDS011;6953;48.810;9.204;2023-10-08T09:15:17;0.00;;;0.00;;
13764;SDS011;6953;48.810;9.204;2023-10-08T09:17:43;0.00;;;0.00;;
13764;SDS011;6953;48.810;9.204;2023-10-08T09:20:08;0.00;;;0.00;;
13764;SDS011;6953;48.810;9.204;2023-10-08T09:22:37;0.00;;;0.00;;
13764;SDS011;6953;48.810;9.204;2023-10-08T09:25:02;0.00;;;0.00;;
13764;SDS011;6953;48.810;9.204;2023-10-08T09:27:32;0.00;;;0.00;;
13764;SDS011;6953;48.810;9.204;2023-10-08T09:29:57;0.00;;;0.00;;
13764;SDS011;6953;48.810;9.204;2023-10-08T09:32:24;0.00;;;0.00;;
13764;SDS011;6953;48.810;9.204;2023-10-08T09:34:50;0.00;;;0.00;;
13764;SDS011;6953;48.810;9.204;2023-10-08T09:37:17;0.00;;;0.00;;
13764;SDS011;6953;48.810;9.204;2023-10-08T09:39:42;0.00;;;0.00;;
13764;SDS011;6953;48.810;9.204;2023-10-08T09:42:10;0.00;;;0.00;;
13764;SDS011;6953;48.810;9.204;2023-10-08T09:44:37;0.00;;;0.00;;
13764;SDS011;6953;48.810;9.204;2023-10-08T09:47:03;0.00;;;0.00;;
13764;SDS011;6953;48.810;9.204;2023-10-08T09:49:36;0.00;;;0.00;;
13764;SDS011;6953;48.810;9.204;2023-10-08T09:52:06;0.00;;;0.00;;
13764;SDS011;6953;48.810;9.204;2023-10-08T09:54:37;0.00;;;0.00;;
13764;SDS011;6953;48.810;9.204;2023-10-08T09:57:08;0.00;;;0.00;;
13764;SDS011;6953;48.810;9.204;2023-10-08T09:59:35;0.00;;;0.00;;
13764;SDS011;6953;48.810;9.204;2023-10-08T10:02:00;0.00;;;0.00;;
13764;SDS011;6953;48.810;9.204;2023-10-08T10:04:29;0.00;;;0.00;;
13764;SDS011;6953;48.810;9.204;2023-10-08T10:06:57;0.00;;;0.00;;
13764;SDS011;6953;48.810;9.204;2023-10-08T10:09:23;0.00;;;0.00;;
13764;SDS011;6953;48.810;9.204;2023-10-08T10:11:51;0.00;;;0.00;;
13764;SDS011;6953;48.810;9.204;2023-10-08T10:14:18;0.00;;;0.00;;
13764;SDS011;6953;48.810;9.204;2023-10-08T10:19:39;0.00;;;0.00;;
13764;SDS011;6953;48.810;9.204;2023-10-08T10:22:10;0.00;;;0.00;;
13764;SDS011;6953;48.810;9.204;2023-10-08T10:24:36;0.00;;;0.00;;
13764;SDS011;6953;48.810;9.204;2023-10-08T10:27:13;0.00;;;0.00;;
13764;SDS011;6953;48.810;9.204;2023-10-08T10:29:39;0.10;;;0.10;;
13764;SDS011;6953;48.810;9.204;2023-10-08T10:32:09;0.00;;;0.00;;
13764;SDS011;6953;48.810;9.204;2023-10-08T10:34:37;0.00;;;0.00;;
13764;SDS011;6953;48.810;9.204;2023-10-08T10:37:04;0.00;;;0.00;;
13764;SDS011;6953;48.810;9.204;2023-10-08T10:39:50;0.00;;;0.00;;
13764;SDS011;6953;48.810;9.204;2023-10-08T10:42:20;0.00;;;0.00;;
13764;SDS011;6953;48.810;9.204;2023-10-08T10:44:47;0.00;;;0.00;;
13764;SDS011;6953;48.810;9.204;2023-10-08T10:47:17;0.00;;;0.00;;
13764;SDS011;6953;48.810;9.204;2023-10-08T10:49:43;0.00;;;0.00;;
13764;SDS011;6953;48.810;9.204;2023-10-08T10:52:20;0.00;;;0.00;;
13764;SDS011;6953;48.810;9.204;2023-10-08T10:55:05;0.00;;;0.00;;
13764;SDS011;6953;48.810;9.204;2023-10-08T10:57:51;0.00;;;0.00;;
13764;SDS011;6953;48.810;9.204;2023-10-08T11:00:20;0.00;;;0.00;;
13764;SDS011;6953;48.810;9.204;2023-10-08T11:03:01;0.00;;;0.00;;
13764;SDS011;6953;48.810;9.204;2023-10-08T11:05:34;0.00;;;0.00;;
13764;SDS011;6953;48.810;9.204;2023-10-08T11:08:02;0.00;;;0.00;;
13764;SDS011;6953;48.810;9.204;2023-10-08T11:10:31;0.00;;;0.00;;
13764;SDS011;6953;48.810;9.204;2023-10-08T11:13:04;0.00;;;0.00;;
13764;SDS011;6953;48.810;9.204;2023-10-08T11:15:39;0.00;;;0.00;;
13764;SDS011;6953;48.810;9.204;2023-10-08T11:18:09;0.03;;;0.03;;
13764;SDS011;6953;48.810;9.204;2023-10-08T11:20:35;0.00;;;0.00;;
13764;SDS011;6953;48.810;9.204;2023-10-08T11:23:09;0.00;;;0.00;;
13764;SDS011;6953;48.810;9.204;2023-10-08T11:25:58;0.00;;;0.00;;
13764;SDS011;6953;48.810;9.204;2023-10-08T11:28:27;0.00;;;0.00;;
13764;SDS011;6953;48.810;9.204;2023-10-08T11:31:00;0.00;;;0.00;;
13764;SDS011;6953;48.810;9.204;2023-10-08T11:33:33;0.00;;;0.00;;
13764;SDS011;6953;48.810;9.204;2023-10-08T11:36:04;0.00;;;0.00;;
13764;SDS011;6953;48.810;9.204;2023-10-08T11:38:41;0.00;;;0.00;;
13764;SDS011;6953;48.810;9.204;2023-10-08T11:41:13;0.00;;;0.00;;
13764;SDS011;6953;48.810;9.204;2023-10-08T11:43:47;0.00;;;0.00;;
13764;SDS011;6953;48.810;9.204;2023-10-08T11:46:31;0.00;;;0.00;;
13764;SDS011;6953;48.810;9.204;2023-10-08T11:49:06;0.00;;;0.00;;
13764;SDS011;6953;48.810;9.204;2023-10-08T11:51:32;0.00;;;0.00;;
13764;SDS011;6953;48.810;9.204;2023-10-08T11:54:01;0.00;;;0.00;;
13764;SDS011;6953;48.810;9.204;2023-10-08T11:56:29;0.00;;;0.00;;
13764;SDS011;6953;48.810;9.204;2023-10-08T11:58:55;0.00;;;0.00;;
13764;SDS011;6953;48.810;9.204;2023-10-08T12:01:22;0.00;;;0.00;;
13764;SDS011;6953;48.810;9.204;2023-10-08T12:03:49;0.00;;;0.00;;
13764;SDS011;6953;48.810;9.204;2023-10-08T12:06:17;0.00;;;0.00;;
13764;SDS011;6953;48.810;9.204;2023-10-08T12:08:46;0.00;;;0.00;;
13764;SDS011;6953;48.810;9.204;2023-10-08T12:11:15;0.00;;;0.00;;
13764;SDS011;6953;48.810;9.204;2023-10-08T12:13:41;0.00;;;0.00;;
13764;SDS011;6953;48.810;9.204;2023-10-08T12:16:13;0.00;;;0.00;;
13764;SDS011;6953;48.810;9.204;2023-10-08T12:18:49;0.00;;;0.00;;
13764;SDS011;6953;48.810;9.204;2023-10-08T12:21:18;0.00;;;0.00;;
13764;SDS011;6953;48.810;9.204;2023-10-08T12:23:45;0.00;;;0.00;;
13764;SDS011;6953;48.810;9.204;2023-10-08T12:26:11;0.00;;;0.00;;
13764;SDS011;6953;48.810;9.204;2023-10-08T12:28:41;0.00;;;0.00;;
13764;SDS011;6953;48.810;9.204;2023-10-08T12:31:10;0.00;;;0.00;;
13764;SDS011;6953;48.810;9.204;2023-10-08T12:33:36;0.00;;;0.00;;
13764;SDS011;6953;48.810;9.204;2023-10-08T12:36:02;0.00;;;0.00;;
13764;SDS011;6953;48.810;9.204;2023-10-08T12:38:35;0.00;;;0.00;;
13764;SDS011;6953;48.810;9.204;2023-10-08T12:41:01;0.00;;;0.00;;
13764;SDS011;6953;48.810;9.204;2023-10-08T12:43:37;0.00;;;0.00;;
13764;SDS011;6953;48.810;9.204;2023-10-08T12:46:17;0.00;;;0.00;;
13764;SDS011;6953;48.810;9.204;2023-10-08T12:48:55;0.00;;;0.00;;
13764;SDS011;6953;48.810;9.204;2023-10-08T12:51:21;0.00;;;0.00;;
13764;SDS011;6953;48.810;9.204;2023-10-08T12:53:54;0.00;;;0.00;;
13764;SDS011;6953;48.810;9.204;2023-10-08T12:56:29;0.00;;;0.00;;
13764;SDS011;6953;48.810;9.204;2023-10-08T12:59:01;0.00;;;0.00;;
13764;SDS011;6953;48.810;9.204;2023-10-08T13:01:31;0.00;;;0.00;;
13764;SDS011;6953;48.810;9.204;2023-10-08T13:03:56;0.00;;;0.00;;
13764;SDS011;6953;48.810;9.204;2023-10-08T13:06:26;0.00;;;0.00;;
13764;SDS011;6953;48.810;9.204;2023-10-08T13:08:57;0.00;;;0.00;;
13764;SDS011;6953;48.810;9.204;2023-10-08T13:11:27;0.00;;;0.00;;
13764;SDS011;6953;48.810;9.204;2023-10-08T13:13:55;0.00;;;0.00;;
13764;SDS011;6953;48.810;9.204;2023-10-08T13:16:24;0.00;;;0.00;;
13764;SDS011;6953;48.810;9.204;2023-10-08T13:18:51;0.00;;;0.00;;
13764;SDS011;6953;48.810;9.204;2023-10-08T13:21:17;0.00;;;0.00;;
13764;SDS011;6953;48.810;9.204;2023-10-08T13:23:44;0.03;;;0.03;;
13764;SDS011;6953;48.810;9.204;2023-10-08T13:26:11;0.00;;;0.00;;
13764;SDS011;6953;48.810;9.204;2023-10-08T13:28:42;0.00;;;0.00;;
13764;SDS011;6953;48.810;9.204;2023-10-08T13:31:08;0.00;;;0.00;;
13764;SDS011;6953;48.810;9.204;2023-10-08T13:33:41;0.00;;;0.00;;
13764;SDS011;6953;48.810;9.204;2023-10-08T13:36:14;0.00;;;0.00;;
13764;SDS011;6953;48.810;9.204;2023-10-08T13:38:39;0.00;;;0.00;;
13764;SDS011;6953;48.810;9.204;2023-10-08T13:41:08;0.00;;;0.00;;
13764;SDS011;6953;48.810;9.204;2023-10-08T13:43:40;0.00;;;0.00;;
13764;SDS011;6953;48.810;9.204;2023-10-08T13:46:13;0.00;;;0.00;;
13764;SDS011;6953;48.810;9.204;2023-10-08T13:48:41;0.00;;;0.00;;
13764;SDS011;6953;48.810;9.204;2023-10-08T13:51:07;0.00;;;0.00;;
13764;SDS011;6953;48.810;9.204;2023-10-08T13:53:39;0.00;;;0.00;;
13764;SDS011;6953;48.810;9.204;2023-10-08T13:56:05;0.00;;;0.00;;
13764;SDS011;6953;48.810;9.204;2023-10-08T13:58:31;0.00;;;0.00;;
13764;SDS011;6953;48.810;9.204;2023-10-08T14:00:59;0.00;;;0.00;;
13764;SDS011;6953;48.810;9.204;2023-10-08T14:03:38;0.10;;;0.10;;
13764;SDS011;6953;48.810;9.204;2023-10-08T14:06:04;0.00;;;0.00;;
13764;SDS011;6953;48.810;9.204;2023-10-08T14:08:30;0.00;;;0.00;;
13764;SDS011;6953;48.810;9.204;2023-10-08T14:10:56;0.00;;;0.00;;
13764;SDS011;6953;48.810;9.204;2023-10-08T14:13:31;0.03;;;0.03;;
13764;SDS011;6953;48.810;9.204;2023-10-08T14:16:02;0.00;;;0.00;;
13764;SDS011;6953;48.810;9.204;2023-10-08T14:18:33;0.00;;;0.00;;
13764;SDS011;6953;48.810;9.204;2023-10-08T14:21:06;0.10;;;0.10;;
13764;SDS011;6953;48.810;9.204;2023-10-08T14:23:37;0.00;;;0.00;;
13764;SDS011;6953;48.810;9.204;2023-10-08T14:26:07;0.00;;;0.00;;
13764;SDS011;6953;48.810;9.204;2023-10-08T14:28:34;0.10;;;0.10;;
13764;SDS011;6953;48.810;9.204;2023-10-08T14:31:09;0.00;;;0.00;;
13764;SDS011;6953;48.810;9.204;2023-10-08T14:33:43;0.00;;;0.00;;
13764;SDS011;6953;48.810;9.204;2023-10-08T14:36:24;0.00;;;0.00;;
13764;SDS011;6953;48.810;9.204;2023-10-08T14:39:09;0.10;;;0.10;;
13764;SDS011;6953;48.810;9.204;2023-10-08T14:41:53;0.00;;;0.00;;
13764;SDS011;6953;48.810;9.204;2023-10-08T14:44:38;0.00;;;0.00;;
13764;SDS011;6953;48.810;9.204;2023-10-08T14:47:06;0.00;;;0.00;;
13764;SDS011;6953;48.810;9.204;2023-10-08T14:49:32;0.00;;;0.00;;
13764;SDS011;6953;48.810;9.204;2023-10-08T14:51:58;0.00;;;0.00;;
13764;SDS011;6953;48.810;9.204;2023-10-08T14:54:24;0.00;;;0.00;;
13764;SDS011;6953;48.810;9.204;2023-10-08T14:56:50;0.00;;;0.00;;
13764;SDS011;6953;48.810;9.204;2023-10-08T14:59:16;0.10;;;0.10;;
13764;SDS011;6953;48.810;9.204;2023-10-08T15:01:43;0.00;;;0.00;;
13764;SDS011;6953;48.810;9.204;2023-10-08T15:04:09;0.00;;;0.00;;
13764;SDS011;6953;48.810;9.204;2023-10-08T15:06:36;0.10;;;0.10;;
13764;SDS011;6953;48.810;9.204;2023-10-08T15:09:02;0.10;;;0.10;;
13764;SDS011;6953;48.810;9.204;2023-10-08T15:11:27;0.10;;;0.10;;
13764;SDS011;6953;48.810;9.204;2023-10-08T15:13:55;0.00;;;0.00;;
13764;SDS011;6953;48.810;9.204;2023-10-08T15:16:21;0.00;;;0.00;;
13764;SDS011;6953;48.810;9.204;2023-10-08T15:18:51;0.10;;;0.10;;
13764;SDS011;6953;48.810;9.204;2023-10-08T15:21:17;0.00;;;0.00;;
13764;SDS011;6953;48.810;9.204;2023-10-08T15:23:42;0.10;;;0.10;;
13764;SDS011;6953;48.810;9.204;2023-10-08T15:26:09;0.00;;;0.00;;
13764;SDS011;6953;48.810;9.204;2023-10-08T15:28:36;0.05;;;0.05;;
13764;SDS011;6953;48.810;9.204;2023-10-08T15:31:01;0.10;;;0.10;;
13764;SDS011;6953;48.810;9.204;2023-10-08T15:33:26;0.03;;;0.03;;
13764;SDS011;6953;48.810;9.204;2023-10-08T15:35:52;0.00;;;0.00;;
13764;SDS011;6953;48.810;9.204;2023-10-08T15:38:17;0.08;;;0.08;;
13764;SDS011;6953;48.810;9.204;2023-10-08T15:40:42;0.10;;;0.10;;